Time;durP1;ratioP1;P1;durP2;ratioP2;P2;SDS_P1;SDS_P2;PMS_P1;PMS_P2;Temp;Humidity;BMP_temperature;BMP_pressure;BME280_temperature;BME280_humidity;BME280_pressure;Samples;Min_cycle;Max_cycle;Signal;HPM_P1;HPM_P2
2021/07/01 00:02:00;;;;;;;41.97;24.20;;;;;;;15.87;100.00;100317.81;4974938;28;20284;-75
2021/07/01 00:04:28;;;;;;;41.40;24.20;;;;;;;15.73;100.00;100320.97;4977829;28;20582;-76
2021/07/01 00:06:53;;;;;;;42.67;24.13;;;;;;;15.85;100.00;100319.28;4977955;28;20316;-74
2021/07/01 00:09:23;;;;;;;41.63;23.93;;;;;;;15.97;100.00;100319.47;4975973;28;20194;-75
2021/07/01 00:11:55;;;;;;;40.07;23.93;;;;;;;15.99;100.00;100320.78;4990263;28;20377;-74
2021/07/01 00:14:21;;;;;;;43.70;24.53;;;;;;;15.93;100.00;100322.06;5007354;28;20272;-75
2021/07/01 00:16:53;;;;;;;42.03;24.70;;;;;;;15.85;100.00;100314.59;4972369;28;20222;-75
2021/07/01 00:19:21;;;;;;;35.53;22.53;;;;;;;15.74;100.00;100322.59;4940792;28;20178;-76
2021/07/01 00:21:49;;;;;;;36.97;23.27;;;;;;;15.75;100.00;100324.19;4993135;28;20246;-73
2021/07/01 00:24:15;;;;;;;35.37;21.73;;;;;;;15.76;100.00;100317.63;4980004;28;20190;-74
2021/07/01 00:26:40;;;;;;;36.37;22.30;;;;;;;15.77;100.00;100329.06;4966425;28;20233;-73
2021/07/01 00:29:06;;;;;;;38.67;22.37;;;;;;;15.62;100.00;100325.91;4991223;28;20193;-74
2021/07/01 00:31:33;;;;;;;37.33;22.63;;;;;;;15.63;100.00;100326.72;4970487;28;20226;-75
2021/07/01 00:34:02;;;;;;;37.20;21.52;;;;;;;15.56;100.00;100323.59;4973279;28;20201;-74
2021/07/01 00:36:30;;;;;;;37.43;22.33;;;;;;;15.67;100.00;100333.19;4970406;28;20766;-74
2021/07/01 00:38:58;;;;;;;37.23;22.10;;;;;;;15.73;100.00;100321.75;4959327;28;20187;-74
2021/07/01 00:41:23;;;;;;;37.40;21.88;;;;;;;15.80;100.00;100316.66;4969870;28;20249;-75
2021/07/01 00:43:51;;;;;;;36.55;21.65;;;;;;;15.60;100.00;100317.19;4966857;28;20235;-75
2021/07/01 00:46:22;;;;;;;32.97;21.17;;;;;;;15.62;100.00;100327.81;4963447;28;20253;-75
2021/07/01 00:48:52;;;;;;;36.43;21.30;;;;;;;15.65;100.00;100319.00;4955208;28;20190;-74
2021/07/01 00:51:18;;;;;;;34.27;20.63;;;;;;;15.57;100.00;100311.56;4965156;28;20225;-74
2021/07/01 00:53:43;;;;;;;34.70;21.07;;;;;;;15.61;100.00;100315.28;4975085;28;20686;-75
2021/07/01 00:56:11;;;;;;;34.93;21.13;;;;;;;15.47;100.00;100322.75;4968036;28;20275;-73
2021/07/01 00:58:44;;;;;;;32.93;22.00;;;;;;;15.50;100.00;100311.19;4957371;28;20183;-73
2021/07/01 01:01:14;;;;;;;39.03;23.43;;;;;;;15.56;100.00;100315.41;4965302;28;20226;-74
2021/07/01 01:03:44;;;;;;;38.78;22.55;;;;;;;15.51;100.00;100318.25;4940797;28;20194;-74
2021/07/01 01:06:13;;;;;;;40.60;24.08;;;;;;;15.45;100.00;100303.09;4942480;28;20226;-74
2021/07/01 01:08:43;;;;;;;44.20;25.13;;;;;;;15.46;100.00;100310.19;4972220;28;20226;-74
2021/07/01 01:11:14;;;;;;;47.90;26.53;;;;;;;15.25;100.00;100309.06;4970922;28;20301;-75
2021/07/01 01:13:45;;;;;;;46.00;26.37;;;;;;;15.37;100.00;100300.31;4965011;28;20270;-74
2021/07/01 01:16:31;;;;;;;47.43;26.47;;;;;;;15.19;100.00;100298.56;4965978;28;20284;-73
2021/07/01 01:19:00;;;;;;;48.27;27.67;;;;;;;15.30;100.00;100292.53;4958446;28;20260;-73
2021/07/01 01:21:30;;;;;;;53.03;27.33;;;;;;;15.48;100.00;100292.31;4965423;28;20638;-73
2021/07/01 01:24:00;;;;;;;50.03;26.97;;;;;;;15.38;100.00;100297.22;4955295;28;20182;-72
2021/07/01 01:26:26;;;;;;;45.67;27.17;;;;;;;15.34;100.00;100289.97;4944194;28;20774;-75
2021/07/01 01:28:58;;;;;;;52.30;28.73;;;;;;;15.34;100.00;100296.25;4982753;28;20191;-75
2021/07/01 01:31:24;;;;;;;50.97;28.53;;;;;;;15.29;100.00;100295.56;4960765;28;20222;-74
2021/07/01 01:33:51;;;;;;;53.93;28.07;;;;;;;15.36;100.00;100282.25;4955133;28;20202;-73
2021/07/01 01:36:27;;;;;;;52.37;27.50;;;;;;;15.36;100.00;100288.53;4959933;28;20317;-73
2021/07/01 01:38:57;;;;;;;47.40;25.13;;;;;;;15.28;100.00;100283.81;4974243;28;20181;-73
2021/07/01 01:41:31;;;;;;;51.43;25.30;;;;;;;15.38;100.00;100277.28;4983879;28;20221;-73
2021/07/01 01:43:59;;;;;;;42.60;22.23;;;;;;;15.40;100.00;100275.81;4961944;28;20725;-73
2021/07/01 01:46:39;;;;;;;34.60;19.80;;;;;;;15.41;100.00;100269.25;4958712;28;20226;-73
2021/07/01 01:49:07;;;;;;;29.30;16.27;;;;;;;15.31;100.00;100269.53;4958442;28;20185;-74
2021/07/01 01:51:35;;;;;;;26.53;15.17;;;;;;;15.20;100.00;100265.41;4993701;28;20217;-75
2021/07/01 01:54:05;;;;;;;25.10;13.93;;;;;;;15.22;100.00;100254.97;4993360;28;20177;-75
2021/07/01 01:56:37;;;;;;;21.43;13.20;;;;;;;15.28;100.00;100258.38;4985384;28;20273;-74
2021/07/01 01:59:10;;;;;;;24.63;13.23;;;;;;;15.16;100.00;100261.69;4939148;28;20251;-75
2021/07/01 02:01:55;;;;;;;20.87;11.53;;;;;;;15.14;100.00;100263.91;4968168;28;20258;-73
2021/07/01 02:04:36;;;;;;;20.70;11.23;;;;;;;15.12;100.00;100265.31;4993225;28;20204;-75
2021/07/01 02:07:04;;;;;;;17.30;10.53;;;;;;;15.32;100.00;100268.38;4982855;28;20222;-74
2021/07/01 02:09:49;;;;;;;16.77;10.43;;;;;;;15.16;100.00;100261.69;4956605;28;20837;-77
2021/07/01 02:12:15;;;;;;;18.37;10.13;;;;;;;15.08;100.00;100262.38;4961480;28;20223;-72
2021/07/01 02:14:46;;;;;;;18.73;10.70;;;;;;;15.06;100.00;100253.69;4974196;28;20186;-73
2021/07/01 02:17:27;;;;;;;18.27;10.60;;;;;;;15.03;100.00;100257.03;4980499;28;20220;-73
2021/07/01 02:19:57;;;;;;;19.87;10.97;;;;;;;15.13;100.00;100261.47;4994470;28;20188;-73
2021/07/01 02:22:26;;;;;;;19.73;10.57;;;;;;;15.07;100.00;100263.53;4982244;28;20269;-72
2021/07/01 02:24:56;;;;;;;18.07;10.73;;;;;;;15.15;100.00;100264.72;4939998;28;20198;-72
2021/07/01 02:27:22;;;;;;;19.87;11.60;;;;;;;15.12;100.00;100260.66;4951532;28;20229;-72
2021/07/01 02:29:48;;;;;;;18.57;11.60;;;;;;;15.09;100.00;100261.28;4992981;28;20239;-72
2021/07/01 02:32:18;;;;;;;20.87;11.73;;;;;;;14.99;100.00;100258.78;4981170;28;20954;-75
2021/07/01 02:34:45;;;;;;;19.93;11.83;;;;;;;14.81;100.00;100266.34;4951144;29;20809;-72
2021/07/01 02:37:19;;;;;;;22.03;12.30;;;;;;;14.82;100.00;100262.50;4992389;28;20275;-73
2021/07/01 02:40:05;;;;;;;21.23;12.27;;;;;;;14.97;100.00;100267.63;4993844;28;20247;-73
2021/07/01 02:42:43;;;;;;;20.17;11.80;;;;;;;15.03;100.00;100267.97;4988202;28;20192;-72
2021/07/01 02:45:12;;;;;;;21.97;12.33;;;;;;;15.03;100.00;100254.28;4972709;28;20194;-72
2021/07/01 02:47:58;;;;;;;21.83;11.93;;;;;;;14.95;100.00;100264.38;4984230;28;20323;-72
2021/07/01 02:50:24;;;;;;;22.30;12.43;;;;;;;15.13;100.00;100267.78;4990852;28;20227;-75
2021/07/01 02:52:52;;;;;;;21.83;12.50;;;;;;;14.93;100.00;100266.63;4982160;28;20191;-72
2021/07/01 02:55:24;;;;;;;18.93;12.10;;;;;;;14.97;100.00;100267.63;4937833;28;20190;-75
2021/07/01 02:57:50;;;;;;;19.40;12.43;;;;;;;14.83;100.00;100261.38;4966572;28;20640;-72
2021/07/01 03:00:21;;;;;;;19.73;11.80;;;;;;;14.97;100.00;100262.16;4991314;28;20177;-73
2021/07/01 03:02:54;;;;;;;22.90;11.73;;;;;;;14.85;100.00;100259.16;4983344;28;20269;-73
2021/07/01 03:05:38;;;;;;;19.07;11.47;;;;;;;14.98;100.00;100258.28;4942642;28;20233;-73
2021/07/01 03:08:04;;;;;;;24.30;12.23;;;;;;;14.85;100.00;100259.16;4966410;28;20216;-74
2021/07/01 03:10:32;;;;;;;21.80;12.70;;;;;;;14.99;100.00;100261.50;4989603;28;20279;-72
2021/07/01 03:12:59;;;;;;;23.87;13.77;;;;;;;14.98;100.00;100258.28;4978423;28;20187;-73
2021/07/01 03:15:28;;;;;;;22.57;13.57;;;;;;;15.03;100.00;100265.25;4953284;28;20222;-72
2021/07/01 03:17:56;;;;;;;26.80;14.83;;;;;;;15.04;100.00;100269.59;4945704;28;20341;-73
2021/07/01 03:20:34;;;;;;;26.90;15.87;;;;;;;14.94;100.00;100262.75;4992468;28;20224;-74
2021/07/01 03:23:27;;;;;;;31.33;17.20;;;;;;;15.00;100.00;100271.34;4981463;28;20611;-74
2021/07/01 03:25:59;;;;;;;36.27;20.43;;;;;;;14.96;100.00;100261.31;4952409;28;20226;-75
2021/07/01 03:28:27;;;;;;;41.07;21.30;;;;;;;14.78;100.00;100264.22;4968130;28;20224;-73
2021/07/01 03:30:53;;;;;;;40.03;22.90;;;;;;;14.77;100.00;100276.28;4990808;28;20213;-74
2021/07/01 03:33:21;;;;;;;48.57;23.77;;;;;;;14.73;100.00;100270.63;4953817;29;20191;-72
2021/07/01 03:35:49;;;;;;;48.30;25.07;;;;;;;14.70;100.00;100263.03;4959046;28;20210;-72
2021/07/01 03:38:33;;;;;;;51.70;25.90;;;;;;;14.66;100.00;100277.66;4987047;28;20704;-72
2021/07/01 03:41:20;;;;;;;53.77;25.27;;;;;;;14.68;100.00;100261.75;4996092;28;20728;-74
2021/07/01 03:43:51;;;;;;;53.47;25.13;;;;;;;14.81;100.00;100263.63;4995576;28;20228;-73
2021/07/01 03:46:19;;;;;;;53.30;25.57;;;;;;;14.71;100.00;100272.06;4991588;28;20221;-74
2021/07/01 03:48:46;;;;;;;53.53;24.67;;;;;;;14.68;100.00;100253.53;5012726;28;20185;-74
2021/07/01 03:51:30;;;;;;;53.07;25.03;;;;;;;14.72;100.00;100260.00;4991370;28;20232;-74
2021/07/01 03:54:04;;;;;;;47.90;24.00;;;;;;;14.76;100.00;100256.34;4996738;28;20217;-75
2021/07/01 03:56:41;;;;;;;57.10;25.37;;;;;;;14.75;100.00;100260.19;4961888;28;20221;-73
2021/07/01 03:59:13;;;;;;;49.93;24.87;;;;;;;14.65;100.00;100259.59;4965616;28;20221;-72
2021/07/01 04:01:58;;;;;;;55.47;24.60;;;;;;;14.65;100.00;100259.59;4967103;28;20264;-74
2021/07/01 04:04:27;;;;;;;47.13;23.00;;;;;;;14.65;100.00;100265.06;4974441;28;20185;-74
2021/07/01 04:06:55;;;;;;;49.47;23.37;;;;;;;14.76;100.00;100258.25;4973606;28;20253;-73
2021/07/01 04:09:26;;;;;;;55.40;25.50;;;;;;;14.75;100.00;100256.66;4984274;28;20181;-76
2021/07/01 04:12:15;;;;;;;50.43;23.33;;;;;;;14.84;100.00;100261.06;4988633;28;20255;-75
2021/07/01 04:15:01;;;;;;;45.47;22.10;;;;;;;14.58;100.00;100251.03;5003798;28;20197;-75
2021/07/01 04:17:46;;;;;;;50.67;23.97;;;;;;;14.73;100.00;100250.69;4997998;28;20752;-75
2021/07/01 04:20:32;;;;;;;44.33;22.57;;;;;;;14.74;100.00;100244.09;4978857;28;20228;-75
2021/07/01 04:23:16;;;;;;;51.97;22.77;;;;;;;14.81;100.00;100252.69;4975782;28;20216;-75
2021/07/01 04:26:14;;;;;;;44.90;22.27;;;;;;;14.78;100.00;100253.28;4949262;28;20731;-73
2021/07/01 04:28:44;;;;;;;51.10;22.73;;;;;;;14.76;100.00;100250.06;4990832;28;20193;-73
2021/07/01 04:31:16;;;;;;;44.93;21.67;;;;;;;14.67;100.00;100251.94;4993494;28;20224;-75
2021/07/01 04:34:03;;;;;;;41.67;21.83;;;;;;;14.67;100.00;100251.94;5007946;28;20209;-73
2021/07/01 04:36:28;;;;;;;42.07;20.93;;;;;;;14.65;100.00;100254.97;4975633;28;20228;-73
2021/07/01 04:38:57;;;;;;;41.97;20.33;;;;;;;14.77;100.00;100251.69;4975945;28;20194;-73
2021/07/01 04:41:26;;;;;;;44.87;20.97;;;;;;;14.82;100.00;100254.31;4991537;28;20484;-72
2021/07/01 04:43:55;;;;;;;42.17;21.07;;;;;;;14.91;100.00;100258.72;5002356;28;20185;-73
2021/07/01 04:46:24;;;;;;;39.53;19.60;;;;;;;14.94;100.00;100251.81;4975326;28;20315;-74
2021/07/01 04:48:53;;;;;;;42.47;19.57;;;;;;;14.74;100.00;100253.13;4976296;28;20209;-73
2021/07/01 04:51:21;;;;;;;39.17;19.20;;;;;;;14.87;100.00;100256.91;4970613;28;20229;-74
2021/07/01 04:54:10;;;;;;;34.30;18.50;;;;;;;15.00;100.00;100257.66;4961012;28;20281;-74
2021/07/01 04:56:55;;;;;;;37.67;18.93;;;;;;;14.99;100.00;100256.03;4997347;28;20614;-73
2021/07/01 04:59:23;;;;;;;33.40;17.93;;;;;;;15.14;100.00;100252.97;4992555;28;20268;-74
2021/07/01 05:02:12;;;;;;;36.70;17.37;;;;;;;15.08;100.00;100256.13;4984673;28;20213;-73
2021/07/01 05:04:42;;;;;;;44.23;26.37;;;;;;;15.06;100.00;100248.22;4977649;28;20189;-74
2021/07/01 05:07:09;;;;;;;33.63;18.53;;;;;;;15.07;100.00;100251.75;4974196;28;20218;-74
2021/07/01 05:09:39;;;;;;;27.77;15.17;;;;;;;15.19;100.00;100261.06;4978977;28;20185;-73
2021/07/01 05:12:36;;;;;;;24.97;14.57;;;;;;;15.16;100.00;100255.38;4969541;28;20257;-75
2021/07/01 05:15:05;;;;;;;23.23;13.90;;;;;;;15.20;100.00;100250.91;4970171;28;20186;-75
2021/07/01 05:17:33;;;;;;;24.47;14.27;;;;;;;15.26;100.00;100255.16;4957903;28;20222;-74
2021/07/01 05:20:00;;;;;;;26.20;13.03;;;;;;;15.19;100.00;100244.63;4979869;28;20196;-73
2021/07/01 05:22:26;;;;;;;19.97;12.50;;;;;;;15.30;100.00;100254.19;4985479;28;20221;-72
2021/07/01 05:25:11;;;;;;;21.50;12.37;;;;;;;15.26;100.00;100255.94;4982489;28;20204;-74
2021/07/01 05:28:17;;;;;;;19.07;11.10;;;;;;;15.44;100.00;100252.22;4951294;29;20203;-72
2021/07/01 05:31:06;;;;;;;15.20;9.63;;;;;;;15.22;100.00;100243.19;4928891;29;20234;-74
2021/07/01 05:33:50;;;;;;;21.93;16.13;;;;;;;15.23;100.00;100251.09;4964852;28;20252;-76
2021/07/01 05:36:16;;;;;;;16.50;11.27;;;;;;;15.18;100.00;100253.97;4975908;28;20599;-75
2021/07/01 05:38:44;;;;;;;26.77;21.53;;;;;;;15.26;100.00;100250.47;4976290;28;20628;-75
2021/07/01 05:41:19;;;;;;;11.70;8.87;;;;;;;15.40;100.00;100256.66;4986365;28;20220;-75
2021/07/01 05:43:47;;;;;;;12.80;8.70;;;;;;;15.32;100.00;100246.50;4979147;28;20276;-75
2021/07/01 05:46:35;;;;;;;10.83;7.67;;;;;;;15.38;100.00;100256.19;4980966;28;20232;-73
2021/07/01 05:49:03;;;;;;;8.10;6.37;;;;;;;15.34;100.00;100246.97;4974866;28;20190;-74
2021/07/01 05:51:30;;;;;;;10.63;7.37;;;;;;;15.34;100.00;100246.97;4972567;28;20741;-74
2021/07/01 05:54:11;;;;;;;10.40;7.20;;;;;;;15.34;100.00;100262.59;4973951;28;20185;-75
2021/07/01 05:56:37;;;;;;;8.43;6.50;;;;;;;15.34;100.00;100252.44;4972745;28;20300;-76
2021/07/01 05:59:07;;;;;;;9.97;6.57;;;;;;;15.19;100.00;100261.06;4993833;28;20186;-75
2021/07/01 06:01:33;;;;;;;10.53;6.93;;;;;;;15.30;100.00;100256.94;4992505;28;20701;-75
2021/07/01 06:04:01;;;;;;;9.07;6.37;;;;;;;15.18;100.00;100264.94;4994003;28;20231;-73
2021/07/01 06:06:56;;;;;;;10.07;6.37;;;;;;;15.23;100.00;100251.09;4997642;28;20714;-73
2021/07/01 06:09:28;;;;;;;8.07;5.97;;;;;;;15.29;100.00;100254.50;4994083;28;20181;-72
2021/07/01 06:11:55;;;;;;;7.47;5.73;;;;;;;15.23;100.00;100251.09;5002511;28;20249;-74
2021/07/01 06:14:26;;;;;;;9.03;5.97;;;;;;;15.27;100.00;100257.56;4989850;28;20217;-73
2021/07/01 06:16:53;;;;;;;7.17;5.17;;;;;;;15.22;100.00;100259.59;4977064;28;20222;-74
2021/07/01 06:19:19;;;;;;;7.13;5.57;;;;;;;15.16;100.00;100256.22;4955674;28;20186;-73
2021/07/01 06:21:47;;;;;;;6.23;5.10;;;;;;;15.13;100.00;100262.31;4975336;28;20647;-74
2021/07/01 06:24:12;;;;;;;5.13;4.63;;;;;;;15.21;100.00;100253.34;4994127;28;20204;-74
2021/07/01 06:26:40;;;;;;;6.03;4.57;;;;;;;15.32;100.00;100260.16;4965206;28;20214;-73
2021/07/01 06:29:08;;;;;;;6.53;4.80;;;;;;;15.36;100.00;100263.91;4954888;28;20329;-74
2021/07/01 06:31:37;;;;;;;5.97;4.60;;;;;;;15.49;100.00;100255.63;4966162;28;20264;-74
2021/07/01 06:34:03;;;;;;;5.07;4.10;;;;;;;15.47;100.00;100257.03;4974214;28;20259;-73
2021/07/01 06:36:29;;;;;;;5.70;4.23;;;;;;;15.40;100.00;100256.66;5016665;28;20225;-73
2021/07/01 06:39:13;;;;;;;6.47;4.80;;;;;;;15.34;100.00;100255.19;4996382;28;20179;-74
2021/07/01 06:41:57;;;;;;;5.17;4.13;;;;;;;15.43;100.00;100250.59;4987571;28;20229;-73
2021/07/01 06:44:41;;;;;;;5.77;4.40;;;;;;;15.37;100.00;100260.06;4994137;28;20211;-72
2021/07/01 06:47:28;;;;;;;5.47;4.30;;;;;;;15.39;100.00;100255.06;4976784;28;20292;-74
2021/07/01 06:50:13;;;;;;;4.90;4.20;;;;;;;15.44;100.00;100257.69;4942571;28;20221;-74
2021/07/01 06:52:57;;;;;;;5.33;4.03;;;;;;;15.47;100.00;100251.56;4989920;28;20758;-73
2021/07/01 06:56:01;;;;;;;5.77;4.30;;;;;;;15.39;100.00;100248.78;4997640;28;20223;-74
2021/07/01 06:58:33;;;;;;;5.30;4.20;;;;;;;15.43;100.00;100256.84;4975253;28;20192;-75
2021/07/01 07:01:03;;;;;;;4.93;4.27;;;;;;;15.48;100.00;100264.16;4972678;28;20229;-74
2021/07/01 07:03:29;;;;;;;4.87;4.37;;;;;;;15.45;100.00;100260.09;4989715;28;20269;-73
2021/07/01 07:05:55;;;;;;;7.50;4.53;;;;;;;15.52;100.00;100259.66;4976417;28;20289;-75
2021/07/01 07:08:21;;;;;;;6.23;4.60;;;;;;;15.55;100.00;100262.56;4994865;28;20181;-75
2021/07/01 07:10:47;;;;;;;5.23;4.10;;;;;;;15.50;100.00;100262.69;4994687;28;20221;-74
2021/07/01 07:13:15;;;;;;;5.23;3.73;;;;;;;15.47;100.00;100262.50;4985189;28;20209;-76
2021/07/01 07:15:44;;;;;;;4.67;3.83;;;;;;;15.50;100.00;100262.69;4957537;28;20218;-74
2021/07/01 07:18:31;;;;;;;3.50;3.20;;;;;;;15.55;100.00;100254.38;4988524;28;20213;-73
2021/07/01 07:20:59;;;;;;;3.50;3.20;;;;;;;15.42;100.00;100276.34;4975880;28;20307;-76
2021/07/01 07:23:32;;;;;;;4.60;3.10;;;;;;;15.43;100.00;100277.94;4961350;28;20190;-72
2021/07/01 07:25:59;;;;;;;4.13;3.10;;;;;;;15.50;100.00;100270.13;4964545;28;20237;-73
2021/07/01 07:28:27;;;;;;;3.43;3.03;;;;;;;15.37;100.00;100273.75;4993706;28;20200;-73
2021/07/01 07:30:54;;;;;;;4.70;3.40;;;;;;;15.49;100.00;100271.22;4988466;28;20217;-72
2021/07/01 07:33:25;;;;;;;5.90;3.70;;;;;;;15.58;100.00;100274.81;4963187;28;20198;-74
2021/07/01 07:35:53;;;;;;;5.33;3.27;;;;;;;15.69;100.00;100270.69;4941756;28;20222;-73
2021/07/01 07:38:28;;;;;;;4.37;3.20;;;;;;;15.70;100.00;100283.28;4957141;28;20182;-73
2021/07/01 07:40:54;;;;;;;5.00;3.60;;;;;;;15.73;100.00;100279.88;4966455;28;20712;-75
2021/07/01 07:43:21;;;;;;;4.87;3.43;;;;;;;15.67;100.00;100272.94;4983532;28;20924;-74
2021/07/01 07:45:50;;;;;;;4.63;3.47;;;;;;;15.70;100.00;100267.63;4956653;28;20234;-73
2021/07/01 07:48:18;;;;;;;4.80;3.40;;;;;;;15.75;100.00;100280.38;4980190;28;20196;-73
2021/07/01 07:50:50;;;;;;;5.65;4.28;;;;;;;15.80;100.00;100276.41;4994461;28;20236;-72
2021/07/01 07:53:19;;;;;;;5.63;4.23;;;;;;;15.77;100.00;100277.03;4984432;28;20189;-74
2021/07/01 07:55:50;;;;;;;8.23;4.63;;;;;;;15.76;100.00;100276.53;4959949;28;20222;-73
2021/07/01 07:58:15;;;;;;;14.40;5.33;;;;;;;15.85;100.00;100276.25;5002256;28;20702;-73
2021/07/01 08:00:41;;;;;;;7.10;4.77;;;;;;;15.85;100.00;100276.25;5010305;28;20221;-72
2021/07/01 08:03:07;;;;;;;8.53;4.93;;;;;;;15.80;100.00;100267.34;5000352;28;20538;-73
2021/07/01 08:05:32;;;;;;;6.87;4.63;;;;;;;15.93;100.00;100255.47;4973054;28;20249;-75
2021/07/01 08:07:59;;;;;;;8.27;4.67;;;;;;;15.86;100.00;100274.34;4986066;28;20212;-74
2021/07/01 08:10:31;;;;;;;7.75;4.65;;;;;;;16.12;100.00;100270.56;4993435;28;20224;-74
2021/07/01 08:13:02;;;;;;;5.67;4.27;;;;;;;16.04;100.00;100268.56;4978239;28;20189;-75
2021/07/01 08:15:31;;;;;;;7.13;4.83;;;;;;;16.15;100.00;100269.91;4994033;28;20227;-74
2021/07/01 08:17:57;;;;;;;6.93;4.60;;;;;;;16.12;100.00;100277.97;4989658;28;20185;-74
2021/07/01 08:20:23;;;;;;;8.23;4.70;;;;;;;16.07;100.00;100273.44;4973863;28;20325;-73
2021/07/01 08:22:54;;;;;;;12.17;5.63;;;;;;;16.11;100.00;100274.41;4978914;28;20189;-72
2021/07/01 08:25:21;;;;;;;7.10;4.80;;;;;;;16.02;100.00;100273.56;4994838;28;20697;-74
2021/07/01 08:27:47;;;;;;;6.40;4.45;;;;;;;16.06;100.00;100269.09;4992537;28;20645;-74
2021/07/01 08:30:17;;;;;;;5.87;4.07;;;;;;;16.15;100.00;100285.56;4989549;28;20185;-73
2021/07/01 08:32:53;;;;;;;6.47;4.07;;;;;;;16.13;100.00;100283.13;4977053;28;20578;-72
2021/07/01 08:35:21;;;;;;;5.53;3.63;;;;;;;16.01;100.00;100290.34;5010307;28;20672;-73
2021/07/01 08:37:48;;;;;;;7.82;4.10;;;;;;;16.12;100.00;100276.03;5010630;28;20204;-74
2021/07/01 08:40:14;;;;;;;5.13;3.65;;;;;;;16.24;100.00;100279.81;4958034;28;20178;-74
2021/07/01 08:42:42;;;;;;;4.63;3.60;;;;;;;16.31;100.00;100279.34;4983122;28;20186;-74
2021/07/01 08:45:12;;;;;;;6.75;3.78;;;;;;;16.36;100.00;100284.69;4971038;28;20281;-75
2021/07/01 08:47:42;;;;;;;5.78;3.83;;;;;;;16.47;100.00;100283.25;4971672;28;20218;-75
2021/07/01 08:50:15;;;;;;;5.83;3.67;;;;;;;16.43;100.00;100288.56;5007153;28;20215;-74
2021/07/01 08:53:02;;;;;;;6.32;3.90;;;;;;;16.57;100.00;100279.09;5011181;28;20709;-75
2021/07/01 08:55:33;;;;;;;4.65;3.60;;;;;;;16.62;100.00;100284.41;4955602;28;20270;-76
2021/07/01 08:57:59;;;;;;;5.88;3.65;;;;;;;16.57;100.00;100292.81;4955988;28;20203;-74
2021/07/01 09:00:28;;;;;;;4.00;3.42;;;;;;;16.50;100.00;100293.56;4986245;28;20313;-74
2021/07/01 09:03:03;;;;;;;4.97;3.30;;;;;;;16.54;100.00;100291.81;4955692;28;20197;-74
2021/07/01 09:05:37;;;;;;;4.65;3.20;;;;;;;16.57;100.00;100294.72;5011138;28;20705;-76
2021/07/01 09:08:10;;;;;;;4.68;3.65;;;;;;;16.67;100.00;100291.69;4994552;28;20264;-75
2021/07/01 09:10:39;;;;;;;4.43;3.80;;;;;;;16.67;100.00;100288.94;4957079;28;20228;-75
2021/07/01 09:13:09;;;;;;;6.50;3.78;;;;;;;16.70;100.00;100297.34;4970094;28;20181;-76
2021/07/01 09:15:39;;;;;;;5.47;3.85;;;;;;;16.69;100.00;100303.16;4971515;28;20218;-78
2021/07/01 09:18:06;;;;;;;5.68;3.72;;;;;;;16.71;100.00;100301.69;4972012;28;20225;-75
2021/07/01 09:20:34;;;;;;;5.10;4.10;;;;;;;16.68;100.00;100307.84;5005398;28;20225;-74
2021/07/01 09:23:00;;;;;;;6.10;4.40;;;;;;;16.65;100.00;100305.72;4994064;28;20200;-74
2021/07/01 09:25:28;;;;;;;5.77;3.87;;;;;;;16.81;100.00;100306.88;4977155;28;20228;-75
2021/07/01 09:27:57;;;;;;;5.93;3.80;;;;;;;16.79;100.00;100316.53;4974178;28;20229;-76
2021/07/01 09:30:25;;;;;;;6.25;4.30;;;;;;;16.87;100.00;100308.34;4989465;28;20855;-75
2021/07/01 09:33:06;;;;;;;4.47;4.00;;;;;;;16.78;100.00;100315.75;4975012;28;20201;-73
2021/07/01 09:35:36;;;;;;;4.23;3.67;;;;;;;16.70;100.00;100315.72;4976108;28;20236;-74
2021/07/01 09:38:10;;;;;;;5.57;3.83;;;;;;;16.48;100.00;100315.03;4977099;28;20216;-74
2021/07/01 09:40:36;;;;;;;5.00;4.50;;;;;;;16.39;100.00;100308.72;4991996;28;20220;-75
2021/07/01 09:43:04;;;;;;;6.20;4.50;;;;;;;16.63;100.00;100323.63;4988349;28;20205;-76
2021/07/01 09:45:36;;;;;;;5.63;4.13;;;;;;;16.64;100.00;100312.31;4984407;28;20271;-75
2021/07/01 09:48:20;;;;;;;6.15;4.85;;;;;;;16.83;100.00;100309.28;4976146;28;20221;-74
2021/07/01 09:50:47;;;;;;;6.60;4.40;;;;;;;16.67;100.00;100319.91;4976312;28;20303;-74
2021/07/01 09:53:29;;;;;;;5.40;4.63;;;;;;;16.79;100.00;100313.78;5007945;28;20198;-75
2021/07/01 09:55:54;;;;;;;5.95;4.90;;;;;;;17.01;100.00;100311.72;4974757;28;20221;-76
2021/07/01 09:58:28;;;;;;;4.90;4.40;;;;;;;16.90;100.00;100317.84;4974587;28;20239;-73
2021/07/01 10:00:59;;;;;;;6.03;5.07;;;;;;;16.90;100.00;100318.66;4986436;28;20733;-73
2021/07/01 10:03:24;;;;;;;6.35;5.32;;;;;;;16.81;100.00;100322.50;4985372;28;20595;-75
2021/07/01 10:05:50;;;;;;;8.80;5.63;;;;;;;16.83;100.00;100318.34;4978548;28;20229;-74
2021/07/01 10:08:16;;;;;;;5.22;4.57;;;;;;;16.91;100.00;100325.75;4974220;28;20233;-72
2021/07/01 10:10:49;;;;;;;8.02;4.97;;;;;;;16.93;100.00;100315.28;4977000;28;20248;-74
2021/07/01 10:13:22;;;;;;;6.07;5.28;;;;;;;16.85;100.00;100318.81;4953935;28;20204;-78
2021/07/01 10:15:50;;;;;;;9.53;5.13;;;;;;;16.97;100.00;100318.97;4971039;28;20263;-76
2021/07/01 10:18:23;;;;;;;6.60;4.80;;;;;;;17.11;100.00;100322.38;4967631;28;20189;-77
2021/07/01 10:20:55;;;;;;;6.95;5.20;;;;;;;17.07;100.00;100340.63;4966629;28;20181;-75
2021/07/01 10:23:30;;;;;;;7.43;5.68;;;;;;;17.04;100.00;100328.34;4985643;28;20181;-76
2021/07/01 10:26:00;;;;;;;7.65;6.05;;;;;;;17.18;100.00;100322.72;4969539;28;20185;-75
2021/07/01 10:28:30;;;;;;;8.93;6.07;;;;;;;17.14;100.00;100332.69;4968514;28;20940;-75
2021/07/01 10:31:10;;;;;;;9.00;6.72;;;;;;;17.30;100.00;100331.13;4983239;28;20253;-76
2021/07/01 10:33:39;;;;;;;7.70;6.22;;;;;;;17.47;100.00;100326.41;4985427;28;20193;-77
2021/07/01 10:36:14;;;;;;;10.98;6.97;;;;;;;17.47;100.00;100332.75;4968038;28;20252;-76
2021/07/01 10:39:00;;;;;;;9.88;6.82;;;;;;;17.64;100.00;100335.44;4967438;28;20196;-77
2021/07/01 10:41:34;;;;;;;8.95;6.60;;;;;;;17.80;100.00;100342.03;4966877;28;20613;-76
2021/07/01 10:44:02;;;;;;;10.10;7.15;;;;;;;17.96;100.00;100334.88;4980944;28;20204;-76
2021/07/01 10:46:48;;;;;;;9.68;7.25;;;;;;;17.67;100.00;100336.72;4977337;28;21106;-75
2021/07/01 10:49:13;;;;;;;8.95;6.97;;;;;;;17.96;100.00;100337.63;4976093;28;20231;-75
2021/07/01 10:51:55;;;;;;;8.55;7.65;;;;;;;17.91;100.00;100337.81;4976882;28;20178;-75
2021/07/01 10:54:28;;;;;;;10.98;8.23;;;;;;;17.67;100.00;100340.28;4978736;28;20190;-75
2021/07/01 10:57:26;;;;;;;8.95;7.63;;;;;;;17.44;100.00;100338.88;4974320;28;20197;-77
2021/07/01 10:59:56;;;;;;;10.27;8.05;;;;;;;17.64;100.00;100343.69;4984667;28;20220;-76
2021/07/01 11:02:26;;;;;;;10.65;8.20;;;;;;;17.65;100.00;100350.78;4969205;28;20194;-76
2021/07/01 11:05:01;;;;;;;9.82;7.90;;;;;;;17.81;100.00;100349.16;4984650;28;20757;-75
2021/07/01 11:07:27;;;;;;;10.30;8.48;;;;;;;17.96;100.00;100349.44;4967764;28;20223;-76
2021/07/01 11:09:58;;;;;;;10.38;8.27;;;;;;;17.95;100.00;100345.09;4967572;28;20849;-77
2021/07/01 11:12:27;;;;;;;10.13;8.45;;;;;;;18.22;100.00;100342.75;4967975;28;20193;-76
2021/07/01 11:14:56;;;;;;;10.95;8.57;;;;;;;18.09;100.00;100344.91;4967976;28;20254;-77
2021/07/01 11:17:34;;;;;;;9.80;8.48;;;;;;;18.04;100.00;100347.78;4967275;28;20206;-76
2021/07/01 11:20:17;;;;;;;9.13;8.13;;;;;;;18.07;100.00;100352.63;4966980;28;20904;-75
2021/07/01 11:23:04;;;;;;;9.50;8.32;;;;;;;18.03;100.00;100348.94;4968379;28;20177;-75
2021/07/01 11:25:34;;;;;;;10.20;9.15;;;;;;;18.09;100.00;100351.19;4970195;28;20202;-76
2021/07/01 11:28:29;;;;;;;9.63;8.57;;;;;;;18.00;100.00;100366.06;4981588;28;20253;-75
2021/07/01 11:31:02;;;;;;;12.23;8.75;;;;;;;18.10;100.00;100357.53;4968023;28;20185;-75
2021/07/01 11:33:28;;;;;;;9.70;8.70;;;;;;;18.07;100.00;100369.94;4967660;28;20234;-75